Airfield :
LOGIN :

Register | Disclaimer

   EN    FR    IT 

 










Legend :    VFR   Marginal VFR   IFR   Intensive IFR   Very Intensive IFR
Visi :
Ceiling :
>= 8 km
>= 3000ft
5 to 8 km
1000 to 3000 ft
1500m to 5 km
500 to 1000 ft
800 to 1500m
200 to 500 ft
< 800m
< 200 ft
Symbols :   Thunderstorms  Fog  Heavy snow  Heavy precipitations  Wind > 20 kt
SIGMETs :     Misc.  Thunderstorms  Icing  Turbulence  Mountain Waves  Volcanic Ashes







- Airport Elevation : 1906 ft
- IATA code : INN


LOWI - Innsbruck

CURRENT METAR :
  • 241520Z VRB03KT 9999 FEW030 SCT060 FEW060TCU BKN100 22/13 Q1017 TEMPO SHRA

EXPIRED METARs :
  • 241450Z 14003KT 080V200 9999 FEW030 SCT060 FEW060TCU BKN100 21/14 Q1017 NOSIG
  • 241350Z VRB02KT 9999 FEW030 SCT060 FEW060TCU BKN100 20/15 Q1017 TEMPO SHRA
  • 241320Z 16003KT 090V260 9999 FEW030 SCT060 FEW060TCU BKN070 19/15 Q1018 TEMPO SHRA
  • 241250Z VRB03KT 9999 -SHRA FEW040 SCT060 FEW060CB BKN080 20/11 Q1018 TEMPO 24010G22KT TSRA

TAF TAF LOWI
Valid from the 24 at 12:00 until the 25 at 12:00 UTC


241115Z 2412/2512 08007KT 9999 SCT050TCU BKN100 TX24/2512Z TN12/2504Z
TEMPO 2412/2420 VRB15G25KT TSRA SCT070CB BKN080
BECMG 2419/2421 27004KT FEW010
TEMPO 2500/2507 BKN010
BECMG 2509/2511 08008KT FEW040
No reported NOTAMs for that airfield.



MET'MAP, your aeronautical weather chart ! - Copyright ORBIFLY December 2007 - Disclaimer

ORBIFLY MET'MAP TEAM :

Programming & Development : Alexandra Zaïnal
Concept & Development : Baudouin d'Aumeries
Co-Development & Prog : Marc-Olivier Méhu
Technical & hardware support : Manuel Goepfert

Contact : metmap@orbifly.com




SOURCES & CREDITS :

   NOAA